createdAt,value
2022-08-19T00:00:51.336Z,22.17
2022-08-19T00:05:52.919Z,22.04
2022-08-19T00:10:54.377Z,21.89
2022-08-19T00:15:56.951Z,21.75
2022-08-19T00:20:58.959Z,21.67
2022-08-19T00:26:00.380Z,21.64
2022-08-19T00:31:03.017Z,21.60
2022-08-19T00:36:08.604Z,21.60
2022-08-19T00:41:15.583Z,21.59
2022-08-19T00:46:17.060Z,21.65
2022-08-19T00:51:18.788Z,21.71
2022-08-19T00:56:20.458Z,21.78
2022-08-19T01:01:22.139Z,21.88
2022-08-19T01:06:24.530Z,21.90
2022-08-19T01:11:27.881Z,21.78
2022-08-19T01:16:31.049Z,21.73
2022-08-19T01:21:48.390Z,21.68
2022-08-19T01:26:50.039Z,21.70
2022-08-19T01:31:53.535Z,21.76
2022-08-19T01:36:55.136Z,21.81
2022-08-19T01:41:56.803Z,21.84
2022-08-19T01:46:58.430Z,21.85
2022-08-19T01:52:01.908Z,21.87
2022-08-19T01:57:09.408Z,21.87
2022-08-19T02:02:11.421Z,21.87
2022-08-19T02:07:12.998Z,21.86
2022-08-19T02:12:15.546Z,21.86
2022-08-19T02:17:16.969Z,21.87
2022-08-19T02:22:18.410Z,21.88
2022-08-19T02:27:20.263Z,21.90
2022-08-19T02:32:21.806Z,21.84
2022-08-19T02:37:41.782Z,21.71
2022-08-19T02:42:43.678Z,21.67
2022-08-19T02:47:45.338Z,21.72
2022-08-19T02:52:46.838Z,21.77
2022-08-19T02:57:48.972Z,21.80
2022-08-19T03:02:50.746Z,21.78
2022-08-19T03:07:52.268Z,21.66
2022-08-19T03:12:53.888Z,21.57
2022-08-19T03:17:55.579Z,21.57
2022-08-19T03:22:58.845Z,21.63
2022-08-19T03:28:00.279Z,21.68
2022-08-19T03:33:02.846Z,21.65
2022-08-19T03:38:07.583Z,21.55
2022-08-19T03:43:09.373Z,21.44
2022-08-19T03:48:10.805Z,21.43
2022-08-19T03:53:12.281Z,21.39
2022-08-19T03:58:13.736Z,21.40
2022-08-19T04:03:15.643Z,21.38
2022-08-19T04:08:21.149Z,21.36
2022-08-19T04:13:23.039Z,21.35
2022-08-19T04:18:24.973Z,21.31
2022-08-19T04:23:26.632Z,21.28
2022-08-19T04:28:31.050Z,21.26
2022-08-19T04:33:33.096Z,21.26
2022-08-19T04:38:34.862Z,21.28
2022-08-19T04:43:39.066Z,21.32
2022-08-19T04:48:44.916Z,21.40
2022-08-19T04:53:51.245Z,21.45
2022-08-19T04:58:53.527Z,21.51
2022-08-19T05:03:55.807Z,21.48
2022-08-19T05:08:57.265Z,21.46
2022-08-19T05:13:58.836Z,21.42
2022-08-19T05:19:19.202Z,21.42
2022-08-19T05:24:21.948Z,21.50
2022-08-19T05:29:25.840Z,21.57
2022-08-19T05:34:28.351Z,21.67
2022-08-19T05:39:33.491Z,21.74
2022-08-19T05:44:39.207Z,21.87
2022-08-19T05:49:40.698Z,21.90
2022-08-19T05:54:43.607Z,21.88
2022-08-19T05:59:47.212Z,21.93
2022-08-19T06:04:48.761Z,21.98
2022-08-19T06:09:58.942Z,22.19
2022-08-19T06:15:06.539Z,22.35
2022-08-19T06:20:11.247Z,22.52
2022-08-19T06:25:13.972Z,22.48
2022-08-19T06:30:15.886Z,22.39
2022-08-19T06:35:17.461Z,22.40
2022-08-19T06:40:19.042Z,22.48
2022-08-19T06:45:21.473Z,22.60
2022-08-19T06:50:26.773Z,22.89
2022-08-19T06:55:30.399Z,23.24
2022-08-19T07:00:35.126Z,23.48
2022-08-19T07:05:45.773Z,24.05
2022-08-19T07:10:47.835Z,24.29
2022-08-19T07:15:51.202Z,24.69
2022-08-19T07:21:09.504Z,24.98
2022-08-19T07:26:20.123Z,24.92
2022-08-19T07:31:31.175Z,24.87
2022-08-19T07:36:35.731Z,24.85
2022-08-19T07:41:38.037Z,25.17
2022-08-19T07:46:45.891Z,25.54
2022-08-19T07:51:53.699Z,25.69
2022-08-19T07:56:55.358Z,25.59
2022-08-19T08:02:00.568Z,25.26
2022-08-19T08:07:20.846Z,25.30
2022-08-19T08:12:34.167Z,25.94
2022-08-19T08:17:49.781Z,26.47
2022-08-19T08:23:11.765Z,27.27
2022-08-19T08:28:17.641Z,28.29
2022-08-19T08:33:33.259Z,28.65
2022-08-19T08:38:41.314Z,28.16
2022-08-19T08:43:48.500Z,28.75
2022-08-19T08:49:08.430Z,30.58
2022-08-19T08:54:14.402Z,31.59
2022-08-19T08:59:36.369Z,32.78
2022-08-19T09:04:38.878Z,35.17
2022-08-19T09:09:44.535Z,33.87
2022-08-19T09:15:10.021Z,33.58
2022-08-19T09:20:11.491Z,32.76
2022-08-19T09:25:17.257Z,32.36
2022-08-19T09:30:29.093Z,32.15
2022-08-19T09:35:50.184Z,31.68
2022-08-19T09:40:54.874Z,31.44
2022-08-19T09:45:56.911Z,31.91
2022-08-19T09:51:16.467Z,32.81
2022-08-19T09:56:20.048Z,33.17
2022-08-19T10:01:24.655Z,34.50
2022-08-19T10:06:45.723Z,34.78
2022-08-19T10:11:54.942Z,32.36
2022-08-19T10:16:57.498Z,31.42
2022-08-19T10:22:04.548Z,31.02
2022-08-19T10:27:06.753Z,30.77
2022-08-19T10:32:10.976Z,31.64
2022-08-19T10:37:14.340Z,32.48
2022-08-19T10:42:17.133Z,33.47
2022-08-19T10:47:24.981Z,33.64
2022-08-19T10:52:38.794Z,33.69
2022-08-19T10:58:01.270Z,33.78
2022-08-19T11:03:02.825Z,33.87
2022-08-19T11:08:04.277Z,33.49
2022-08-19T11:13:25.670Z,33.77
2022-08-19T11:18:27.442Z,33.63
2022-08-19T11:23:28.879Z,32.81
2022-08-19T11:28:30.685Z,32.19
2022-08-19T11:33:32.485Z,31.80
2022-08-19T11:38:36.398Z,31.22
2022-08-19T11:43:38.334Z,31.37
2022-08-19T11:48:40.009Z,31.62
2022-08-19T11:53:41.841Z,31.68
2022-08-19T11:58:43.333Z,31.66
2022-08-19T12:03:47.060Z,31.79
2022-08-19T12:08:48.830Z,32.03
2022-08-19T12:13:50.985Z,31.93
2022-08-19T12:18:52.537Z,31.66
2022-08-19T12:23:55.920Z,31.36
2022-08-19T12:28:59.894Z,31.39
2022-08-19T12:34:02.454Z,31.12
2022-08-19T12:39:04.491Z,30.61
2022-08-19T12:44:06.685Z,30.11
2022-08-19T12:49:20.681Z,29.70
2022-08-19T12:54:31.645Z,29.52
2022-08-19T12:59:33.189Z,29.69
2022-08-19T13:04:41.579Z,30.17
2022-08-19T13:09:43.615Z,30.37
2022-08-19T13:14:50.862Z,30.70
2022-08-19T13:19:52.643Z,31.23
2022-08-19T13:24:54.116Z,31.56
2022-08-19T13:30:14.335Z,31.90
2022-08-19T13:35:17.175Z,32.34
2022-08-19T13:40:23.765Z,32.25
2022-08-19T13:45:27.850Z,32.28
2022-08-19T13:50:32.183Z,32.21
2022-08-19T13:55:33.793Z,32.38
2022-08-19T14:00:39.279Z,32.54
2022-08-19T14:05:40.895Z,32.37
2022-08-19T14:10:44.635Z,32.12
2022-08-19T14:15:48.256Z,31.97
2022-08-19T14:20:50.084Z,31.79
2022-08-19T14:25:51.542Z,31.81
2022-08-19T14:30:55.306Z,31.80
2022-08-19T14:35:59.975Z,31.88
2022-08-19T14:41:18.003Z,31.74
2022-08-19T14:46:22.272Z,31.41
2022-08-19T14:51:25.475Z,30.95
2022-08-19T14:56:29.651Z,30.33
2022-08-19T15:01:31.283Z,29.89
2022-08-19T15:06:32.800Z,29.54
2022-08-19T15:11:35.060Z,29.27
2022-08-19T15:16:36.634Z,29.01
2022-08-19T15:21:38.227Z,28.80
2022-08-19T15:26:39.658Z,28.64
2022-08-19T15:31:41.176Z,28.57
2022-08-19T15:36:42.608Z,28.51
2022-08-19T15:41:45.248Z,28.44
2022-08-19T15:46:48.049Z,28.45
2022-08-19T15:51:51.776Z,28.52
2022-08-19T15:57:11.953Z,28.65
2022-08-19T16:02:32.524Z,28.72
2022-08-19T16:07:34.015Z,28.79
2022-08-19T16:12:35.860Z,28.85
2022-08-19T16:17:37.463Z,28.84
2022-08-19T16:22:40.545Z,28.86
2022-08-19T16:27:43.324Z,28.93
2022-08-19T16:33:03.616Z,29.06
2022-08-19T16:38:06.819Z,29.06
2022-08-19T16:43:09.821Z,28.91
2022-08-19T16:48:11.506Z,28.77
2022-08-19T16:53:14.213Z,28.64
2022-08-19T16:58:15.644Z,28.66
2022-08-19T17:03:19.628Z,28.69
2022-08-19T17:08:32.859Z,28.72
2022-08-19T17:13:34.671Z,28.70
2022-08-19T17:18:36.145Z,28.58
2022-08-19T17:23:43.341Z,28.51
2022-08-19T17:28:51.329Z,28.42
2022-08-19T17:33:55.127Z,28.26
2022-08-19T17:38:58.697Z,28.17
2022-08-19T17:44:00.727Z,28.12
2022-08-19T17:49:02.795Z,28.02
2022-08-19T17:54:06.400Z,27.94
2022-08-19T17:59:11.815Z,27.86
2022-08-19T18:04:17.210Z,27.79
2022-08-19T18:09:18.754Z,27.66
2022-08-19T18:14:32.907Z,27.59
2022-08-19T18:19:41.055Z,27.52
2022-08-19T18:24:45.876Z,27.41
2022-08-19T18:29:47.579Z,27.28
2022-08-19T18:34:49.144Z,27.16
2022-08-19T18:40:09.463Z,27.04
2022-08-19T18:45:30.063Z,26.92
2022-08-19T18:50:32.031Z,26.80
2022-08-19T18:55:33.549Z,26.69
2022-08-19T19:00:37.454Z,26.57
2022-08-19T19:05:40.002Z,26.49
2022-08-19T19:10:42.236Z,26.43
2022-08-19T19:15:43.925Z,26.34
2022-08-19T19:20:45.400Z,26.27
2022-08-19T19:25:50.564Z,26.20
2022-08-19T19:30:54.453Z,26.12
2022-08-19T19:35:56.272Z,26.07
2022-08-19T19:40:57.770Z,25.99
2022-08-19T19:45:59.337Z,25.94
2022-08-19T19:51:01.374Z,25.85
2022-08-19T19:56:04.276Z,25.78
2022-08-19T20:01:08.033Z,25.73
2022-08-19T20:06:13.405Z,25.65
2022-08-19T20:11:44.685Z,25.54
2022-08-19T20:16:47.718Z,25.47
2022-08-19T20:21:51.451Z,25.34
2022-08-19T20:26:53.732Z,25.24
2022-08-19T20:31:57.515Z,25.10
2022-08-19T20:37:00.883Z,25.01
2022-08-19T20:42:03.621Z,24.95
2022-08-19T20:47:05.251Z,24.93
2022-08-19T20:52:06.709Z,24.89
2022-08-19T20:57:08.713Z,24.87
2022-08-19T21:02:11.091Z,24.86
2022-08-19T21:07:12.585Z,24.73
2022-08-19T21:12:14.330Z,24.63
2022-08-19T21:17:15.864Z,24.51
2022-08-19T21:22:17.307Z,24.35
2022-08-19T21:27:18.952Z,24.24
2022-08-19T21:32:20.939Z,24.15
2022-08-19T21:37:25.745Z,24.05
2022-08-19T21:42:27.622Z,23.91
2022-08-19T21:47:29.051Z,23.79
2022-08-19T21:52:30.616Z,23.70
2022-08-19T21:57:32.305Z,23.62
2022-08-19T22:02:33.767Z,23.55
2022-08-19T22:07:36.785Z,23.47
2022-08-19T22:12:39.411Z,23.38
2022-08-19T22:17:53.623Z,23.25
2022-08-19T22:22:58.787Z,23.17
2022-08-19T22:28:01.853Z,23.06
2022-08-19T22:33:06.211Z,22.99
2022-08-19T22:38:10.145Z,22.89
2022-08-19T22:43:16.030Z,22.76
2022-08-19T22:48:20.008Z,22.66
2022-08-19T22:53:21.459Z,22.56
2022-08-19T22:58:27.997Z,22.48
2022-08-19T23:03:29.901Z,22.40
2022-08-19T23:08:31.633Z,22.31
2022-08-19T23:13:33.663Z,22.24
2022-08-19T23:18:35.229Z,22.15
2022-08-19T23:23:37.756Z,22.15
2022-08-19T23:28:59.438Z,22.18
2022-08-19T23:34:00.939Z,22.20
2022-08-19T23:39:02.451Z,22.25
2022-08-19T23:44:04.177Z,22.18
2022-08-19T23:49:06.396Z,22.14
2022-08-19T23:54:07.876Z,22.14
2022-08-19T23:59:09.431Z,22.14
